| parent folder | - | - |
| - | 1809100.json | 13165 | 2025-07-21 09:03:34 |
| - | 1809100_2595536_SoulCentinel_c_ms_cuddles.png | 1621568 | 2025-07-21 09:03:34 |
| - | 2018868.json | 12900 | 2025-07-18 00:19:57 |
| - | 2018868_2915306_SoulCentinel_c_loliturtles_eg.png | 1944657 | 2025-07-18 00:19:57 |
| - | 2019985.json | 8020 | 2025-07-18 00:03:37 |
| - | 2019985_2916977_SoulCentinel_cuddles_doodles.png | 397183 | 2025-07-18 00:03:37 |
| - | 2404904.json | 13150 | 2025-07-13 11:51:14 |
| - | 2404904_3522369_SoulCentinel_midnight_2.png | 226575 | 2025-07-13 11:51:14 |
| - | 2489406.json | 35773 | 2025-07-12 16:00:00 |
| - | 2489406_3656921_SoulCentinel_mrs_cuddles_sorry.png | 656339 | 2025-07-12 16:00:00 |
| - | 2489406_3656922_SoulCentinel_mrs_cuddles_rekt.png | 1156495 | 2025-07-12 16:00:01 |
| - | 2489406_3656923_SoulCentinel_cute_pair_1.png | 952911 | 2025-07-12 16:00:01 |
| - | 2489406_3656924_SoulCentinel_cute_pair_2.png | 996694 | 2025-07-12 16:00:01 |
| - | 2489406_3656925_SoulCentinel_barb_1.png | 901450 | 2025-07-12 16:00:01 |
| - | 2489406_3656926_SoulCentinel_small_millie2.png | 861489 | 2025-07-12 16:00:01 |
| - | 2555301.json | 36023 | 2025-07-11 21:36:16 |
| - | 2555301_3765269_SoulCentinel_cuddles_tease.png | 908775 | 2025-07-11 21:36:16 |
| - | 2555301_3765270_SoulCentinel_cuddles_stuffing.png | 854740 | 2025-07-11 21:36:16 |
| - | 2555301_3765272_SoulCentinel_dragon_fly.png | 1114384 | 2025-07-11 21:36:16 |
| - | 2555301_3765273_SoulCentinel_pizza_cat.png | 993062 | 2025-07-11 21:36:16 |
| - | 2555301_3765274_SoulCentinel_vexus.png | 512032 | 2025-07-11 21:36:16 |
| - | 2555301_3765275_SoulCentinel_merigold2.png | 608191 | 2025-07-11 21:36:16 |
| - | 2555301_3765276_SoulCentinel_okami.png | 883437 | 2025-07-11 21:36:16 |
| - | 2555301_3765277_SoulCentinel_tanya_fuck.png | 1027067 | 2025-07-11 21:36:16 |
| - | 2692662.json | 51834 | 2025-07-10 12:26:22 |
| - | 2692662_3985883_SoulCentinel_htf_2.png | 494012 | 2025-07-10 12:26:22 |
| - | 2692662_3985886_SoulCentinel_jeanette_smug.png | 261050 | 2025-07-10 12:26:22 |
| - | 2692662_3985887_SoulCentinel_muffet.png | 292302 | 2025-07-10 12:26:23 |
| - | 2692662_3985888_SoulCentinel_muffet_tip.png | 460471 | 2025-07-10 12:26:23 |
| - | 2692662_3985889_SoulCentinel_malice_sit.png | 322041 | 2025-07-10 12:26:23 |
| - | 2692662_3985890_SoulCentinel_sus.png | 625834 | 2025-07-10 12:26:23 |
| - | 2692662_3985891_SoulCentinel_weyesh_birthday.png | 328286 | 2025-07-10 12:26:24 |
| - | 2692662_3985892_SoulCentinel_cutie.png | 212511 | 2025-07-10 12:26:24 |
| - | 2692662_3985893_SoulCentinel_hot_coco.png | 493673 | 2025-07-10 12:26:25 |
| - | 2692662_3985895_SoulCentinel_dolly_1.png | 553541 | 2025-07-10 12:26:25 |
| - | 2692662_3985898_SoulCentinel_dolly_2.png | 643724 | 2025-07-10 12:26:25 |
| - | 2692662_3985899_SoulCentinel_mrs_cuddles_adorable.png | 595118 | 2025-07-10 12:26:25 |
| - | 2692662_3985900_SoulCentinel_anon_fusion.png | 366511 | 2025-07-10 12:26:25 |
| - | 2692662_3985901_SoulCentinel_anon_soul_violet_fusion.png | 375841 | 2025-07-10 12:26:26 |
| - | 2702332.json | 45557 | 2025-07-10 09:50:09 |
| - | 2702332_4001655_SoulCentinel_bokko.png | 308669 | 2025-07-10 09:50:08 |
| - | 2702332_4001657_SoulCentinel_bunbun_and_pibby_1.png | 513606 | 2025-07-10 09:50:08 |
| - | 2702332_4001658_SoulCentinel_bunbun_and_pibby_2.png | 794926 | 2025-07-10 09:50:08 |
| - | 2702332_4001660_SoulCentinel_cuddles_after_dark_1.png | 570829 | 2025-07-10 09:50:08 |
| - | 2702332_4001663_SoulCentinel_cut_grass_1.png | 114927 | 2025-07-10 09:50:08 |
| - | 2702332_4001665_SoulCentinel_cut_grass_2.png | 370431 | 2025-07-10 09:50:08 |
| - | 2702332_4001667_SoulCentinel_hello_kitty.png | 32365 | 2025-07-10 09:50:08 |
| - | 2702332_4001669_SoulCentinel_melody.png | 227043 | 2025-07-10 09:50:09 |
| - | 2702332_4001670_SoulCentinel_hello_kitty_imp.png | 319933 | 2025-07-10 09:50:09 |
| - | 2702332_4001671_SoulCentinel_slushi.png | 388888 | 2025-07-10 09:50:09 |
| - | 2702332_4001672_SoulCentinel_terriermon.png | 257979 | 2025-07-10 09:50:09 |
| - | 2702332_4001677_SoulCentinel_innocent_octavia.png | 490415 | 2025-07-10 09:50:09 |
| - | 2713188.json | 50566 | 2025-07-10 07:18:55 |
| - | 2713188_4018627_SoulCentinel_pichu_1.png | 835686 | 2025-07-10 07:18:54 |
| - | 2713188_4018628_SoulCentinel_pichu_2.png | 893110 | 2025-07-10 07:18:54 |
| - | 2713188_4018629_SoulCentinel_valley_girl_violet.png | 440278 | 2025-07-10 07:18:54 |
| - | 2713188_4018630_SoulCentinel_valley_girl_violet_clothes.png | 247836 | 2025-07-10 07:18:54 |
| - | 2713188_4018631_SoulCentinel_rose.png | 788525 | 2025-07-10 07:18:55 |
| - | 2713188_4018633_SoulCentinel_rambi_violet.png | 210508 | 2025-07-10 07:18:54 |
| - | 2713188_4018634_SoulCentinel_letting_it_out.png | 408378 | 2025-07-10 07:18:54 |
| - | 2713188_4018635_SoulCentinel_fifi.png | 40250 | 2025-07-10 07:18:54 |
| - | 2713188_4018636_SoulCentinel_mom_bun.png | 159953 | 2025-07-10 07:18:55 |
| - | 2713188_4018637_SoulCentinel_cuddles_fear.png | 1340406 | 2025-07-10 07:18:55 |
| - | 2713188_4018638_SoulCentinel_based.png | 191651 | 2025-07-10 07:18:55 |
| - | 2713188_4018639_SoulCentinel_demon_milf.png | 722016 | 2025-07-10 07:18:55 |
| - | 2718652.json | 16219 | 2025-07-10 05:58:32 |
| - | 2718652_4027427_SoulCentinel_mc_0a_cover.png | 1879291 | 2025-07-10 05:58:32 |
| - | 2726142.json | 29203 | 2025-07-10 04:09:06 |
| - | 2726142_4039515_SoulCentinel_bunny_2.png | 346357 | 2025-07-10 04:09:06 |
| - | 2726142_4039516_SoulCentinel_bunny_1.png | 375784 | 2025-07-10 04:09:06 |
| - | 2726142_4039517_SoulCentinel_melody.png | 252198 | 2025-07-10 04:09:06 |
| - | 2726142_4039522_SoulCentinel_kek_bunny.png | 286613 | 2025-07-10 04:09:06 |
| - | 2726142_4039523_SoulCentinel_buneary_grab.png | 55084 | 2025-07-10 04:09:06 |
| - | 2726142_4039524_SoulCentinel_mrs_cuddles_oral.png | 877893 | 2025-07-10 04:09:06 |
| - | 2824021.json | 15277 | 2025-07-09 03:29:31 |
| - | 2824021_4195448_SoulCentinel_cuddles_size_4.png | 249630 | 2025-07-09 03:29:31 |
| - | 3077445.json | 19002 | 2025-07-03 17:39:41 |
| - | 3077445_4608845_SoulCentinel_cuddles_fun_2.png | 311689 | 2025-07-03 17:39:40 |
| - | 3077445_4608849_SoulCentinel_cuddles_fun_4.png | 461187 | 2025-07-03 17:39:41 |
| - | 3077445_4608851_SoulCentinel_cuddles_fun_1.png | 450786 | 2025-07-03 17:39:41 |
| - | 3082162.json | 13328 | 2025-07-03 16:15:45 |
| - | 3082162_4616236_SoulCentinel_cuddleswait.gif | 187320 | 2025-07-03 16:15:45 |
| - | 3139504.json | 14594 | 2025-07-02 22:43:06 |
| - | 3139504_4715409_SoulCentinel_cuddleschill_2.png | 507331 | 2025-07-02 22:43:06 |
| - | 3270167.json | 12679 | 2025-07-01 05:33:22 |
| - | 3270167_4939089_SoulCentinel_c_cuddles_rape_c.png | 170163 | 2025-07-01 05:33:22 |
| - | 3288663.json | 22887 | 2025-06-30 23:19:17 |
| - | 3288663_4972484_SoulCentinel_easter_tess_1.png | 352002 | 2025-06-30 23:19:16 |
| - | 3288663_4972485_SoulCentinel_easter_tess_2.png | 504603 | 2025-06-30 23:19:17 |
| - | 3288663_4972486_SoulCentinel_easter_malice.png | 195529 | 2025-06-30 23:19:17 |
| - | 3288663_4972488_SoulCentinel_easter_malice_milf.png | 249522 | 2025-06-30 23:19:17 |
| - | 3288663_4972489_SoulCentinel_easter_cuddles.png | 218562 | 2025-06-30 23:19:17 |
| - | 3635441.json | 31505 | 2025-06-24 15:03:30 |
| - | 3635441_5592901_SoulCentinel_nap_time.png | 198827 | 2025-06-24 15:03:30 |
| - | 3635441_5592902_SoulCentinel_noelle_bondage_1.png | 145072 | 2025-06-24 15:03:30 |
| - | 3635441_5592905_SoulCentinel_deer_hunt.png | 316355 | 2025-06-24 15:03:30 |
| - | 3635441_5592916_SoulCentinel_teasing_imp.png | 233454 | 2025-06-24 15:03:30 |
| - | 3635441_5592917_SoulCentinel_correction_malice.png | 177710 | 2025-06-24 15:03:30 |
| - | 3635441_5592919_SoulCentinel_cuddles_pinup_1.png | 239833 | 2025-06-24 15:03:31 |
| - | 3635441_5592921_SoulCentinel_cuddles_pinup_2.png | 170237 | 2025-06-24 15:03:31 |
| - | 3678453.json | 18550 | 2025-08-08 17:31:42 |
| - | 3678453_5666856_SoulCentinel_pretty_girls_1.png | 120625 | 2025-08-08 17:31:42 |
| - | 3678453_5666857_SoulCentinel_pretty_girls_3.png | 210520 | 2025-08-08 17:31:42 |
| - | 3678453_5666858_SoulCentinel_pretty_girls_4.png | 193092 | 2025-08-08 17:31:42 |
| - | 3776823.json | 11522 | 2025-12-22 04:28:15 |
| - | 3776823_5841978_SoulCentinel_xmas_cuddles_thumb.png | 134272 | 2025-12-22 04:28:15 |
| - | _pool_info.json | 958 | 2025-12-22 04:28:15 |